createdAt,value
2023-12-10T00:00:21.078Z,100488.83
2023-12-10T00:01:23.834Z,100477.63
2023-12-10T00:02:26.693Z,100477.64
2023-12-10T00:03:29.577Z,100475.94
2023-12-10T00:04:33.222Z,100482.89
2023-12-10T00:05:36.014Z,100479.41
2023-12-10T00:06:38.874Z,100473.34
2023-12-10T00:07:41.616Z,100468.19
2023-12-10T00:08:44.100Z,100463.89
2023-12-10T00:09:46.707Z,100474.34
2023-12-10T00:10:49.411Z,100477.81
2023-12-10T00:11:51.992Z,100474.30
2023-12-10T00:12:54.687Z,100474.26
2023-12-10T00:13:57.146Z,100474.21
2023-12-10T00:14:59.689Z,100475.91
2023-12-10T00:16:02.364Z,100477.63
2023-12-10T00:17:04.880Z,100477.63
2023-12-10T00:18:07.460Z,100467.22
2023-12-10T00:19:10.314Z,100478.50
2023-12-10T00:20:14.046Z,100482.89
2023-12-10T00:21:16.692Z,100485.45
2023-12-10T00:22:19.315Z,100481.02
2023-12-10T00:23:22.795Z,100478.41
2023-12-10T00:24:25.485Z,100480.15
2023-12-10T00:25:28.128Z,100484.48
2023-12-10T00:26:30.667Z,100477.50
2023-12-10T00:27:33.332Z,100480.87
2023-12-10T00:28:35.851Z,100484.30
2023-12-10T00:29:38.289Z,100488.63
2023-12-10T00:30:41.088Z,100486.81
2023-12-10T00:31:44.345Z,100485.04
2023-12-10T00:32:47.065Z,100480.64
2023-12-10T00:33:49.826Z,100478.03
2023-12-10T00:34:52.554Z,100475.38
2023-12-10T00:35:55.327Z,100471.00
2023-12-10T00:36:57.995Z,100471.00
2023-12-10T00:38:00.560Z,100471.88
2023-12-10T00:39:04.055Z,100468.44
2023-12-10T00:40:09.305Z,100467.63
2023-12-10T00:41:12.468Z,100472.02
2023-12-10T00:42:15.035Z,100472.10
2023-12-10T00:43:17.599Z,100470.42
2023-12-10T00:44:20.127Z,100471.37
2023-12-10T00:45:22.656Z,100471.37
2023-12-10T00:46:25.214Z,100473.16
2023-12-10T00:47:27.705Z,100471.42
2023-12-10T00:48:30.376Z,100464.45
2023-12-10T00:49:33.207Z,100470.52
2023-12-10T00:50:36.030Z,100467.05
2023-12-10T00:51:38.661Z,100467.05
2023-12-10T00:52:41.220Z,100461.84
2023-12-10T00:53:43.738Z,100464.44
2023-12-10T00:54:46.262Z,100469.59
2023-12-10T00:55:48.808Z,100467.86
2023-12-10T00:56:51.477Z,100470.46
2023-12-10T00:57:54.059Z,100470.42
2023-12-10T00:58:56.624Z,100473.02
2023-12-10T00:59:59.181Z,100467.86
2023-12-10T01:01:01.832Z,100467.81
2023-12-10T01:02:04.928Z,100470.41
2023-12-10T01:03:07.616Z,100466.03
2023-12-10T01:04:10.312Z,100466.95
2023-12-10T01:05:12.949Z,100470.42
2023-12-10T01:06:16.512Z,100468.69
2023-12-10T01:07:19.092Z,100466.95
2023-12-10T01:08:21.619Z,100464.39
2023-12-10T01:09:24.182Z,100470.46
2023-12-10T01:10:28.693Z,100467.77
2023-12-10T01:11:31.507Z,100475.53
2023-12-10T01:12:34.415Z,100465.98
2023-12-10T01:13:36.867Z,100472.06
2023-12-10T01:14:39.631Z,100471.19
2023-12-10T01:15:42.322Z,100468.53
2023-12-10T01:16:44.970Z,100476.30
2023-12-10T01:17:47.559Z,100475.43
2023-12-10T01:18:50.311Z,100471.05
2023-12-10T01:19:52.971Z,100476.22
2023-12-10T01:20:55.636Z,100464.92
2023-12-10T01:21:59.792Z,100459.66
2023-12-10T01:23:02.930Z,100458.80
2023-12-10T01:24:05.797Z,100461.45
2023-12-10T01:25:08.387Z,100453.63
2023-12-10T01:26:12.175Z,100452.77
2023-12-10T01:27:14.698Z,100459.67
2023-12-10T01:28:17.407Z,100461.39
2023-12-10T01:29:19.973Z,100463.09
2023-12-10T01:30:23.188Z,100454.35
2023-12-10T01:31:25.925Z,100455.19
2023-12-10T01:32:28.691Z,100457.78
2023-12-10T01:33:31.628Z,100461.20
2023-12-10T01:34:34.522Z,100455.13
2023-12-10T01:35:37.599Z,100455.13
2023-12-10T01:36:40.397Z,100454.31
2023-12-10T01:37:42.964Z,100452.53
2023-12-10T01:38:45.467Z,100450.73
2023-12-10T01:39:48.023Z,100454.16
2023-12-10T01:40:50.588Z,100459.31
2023-12-10T01:41:53.135Z,100455.84
2023-12-10T01:42:56.442Z,100453.24
2023-12-10T01:43:58.987Z,100452.47
2023-12-10T01:45:02.469Z,100449.09
2023-12-10T01:46:05.706Z,100452.58
2023-12-10T01:47:09.400Z,100452.57
2023-12-10T01:48:12.173Z,100455.23
2023-12-10T01:49:16.765Z,100449.16
2023-12-10T01:50:20.418Z,100445.69
2023-12-10T01:51:23.932Z,100450.07
2023-12-10T01:52:26.761Z,100450.13
2023-12-10T01:53:29.369Z,100451.81
2023-12-10T01:54:31.990Z,100444.95
2023-12-10T01:55:34.721Z,100444.95
2023-12-10T01:56:37.553Z,100447.52
2023-12-10T01:57:40.265Z,100443.22
2023-12-10T01:58:42.991Z,100438.02
2023-12-10T01:59:45.564Z,100441.39
2023-12-10T02:00:48.377Z,100439.60
2023-12-10T02:01:51.022Z,100446.54
2023-12-10T02:02:53.598Z,100448.28
2023-12-10T02:03:56.980Z,100451.70
2023-12-10T02:05:08.434Z,100452.53
2023-12-10T02:06:11.810Z,100447.32
2023-12-10T02:07:14.499Z,100446.50
2023-12-10T02:08:17.072Z,100451.70
2023-12-10T02:09:19.832Z,100449.91
2023-12-10T02:10:22.713Z,100446.45
2023-12-10T02:11:25.532Z,100442.97
2023-12-10T02:12:28.862Z,100436.84
2023-12-10T02:13:31.773Z,100443.73
2023-12-10T02:14:34.330Z,100448.02
2023-12-10T02:15:36.867Z,100445.36
2023-12-10T02:16:39.757Z,100444.51
2023-12-10T02:17:42.334Z,100439.30
2023-12-10T02:18:45.405Z,100438.48
2023-12-10T02:19:48.163Z,100438.48
2023-12-10T02:20:50.900Z,100442.86
2023-12-10T02:21:53.377Z,100442.97
2023-12-10T02:23:14.691Z,100439.55
2023-12-10T02:25:36.279Z,100428.98
2023-12-10T02:26:39.349Z,100435.21
2023-12-10T02:27:42.330Z,100427.40
2023-12-10T02:28:44.898Z,100425.70
2023-12-10T02:29:49.461Z,100430.05
2023-12-10T02:30:52.281Z,100424.89
2023-12-10T02:31:55.014Z,100425.83
2023-12-10T02:32:58.194Z,100436.23
2023-12-10T02:34:01.249Z,100436.33
2023-12-10T02:35:04.971Z,100432.91
2023-12-10T02:36:08.976Z,100436.39
2023-12-10T02:37:11.581Z,100435.52
2023-12-10T02:38:14.304Z,100430.25
2023-12-10T02:39:16.886Z,100438.02
2023-12-10T02:40:19.664Z,100428.47
2023-12-10T02:41:22.220Z,100435.52
2023-12-10T02:42:24.818Z,100430.27
2023-12-10T02:43:27.487Z,100432.86
2023-12-10T02:44:30.014Z,100429.44
2023-12-10T02:45:32.596Z,100432.09
2023-12-10T02:46:35.148Z,100434.59
2023-12-10T02:47:38.043Z,100441.45
2023-12-10T02:48:40.995Z,100430.98
2023-12-10T02:49:43.963Z,100432.76
2023-12-10T02:50:46.763Z,100435.41
2023-12-10T02:51:49.375Z,100430.21
2023-12-10T02:52:51.985Z,100429.39
2023-12-10T02:53:54.473Z,100426.84
2023-12-10T02:54:57.125Z,100430.31
2023-12-10T02:55:59.689Z,100431.22
2023-12-10T02:57:02.262Z,100425.96
2023-12-10T02:58:05.783Z,100427.70
2023-12-10T02:59:09.026Z,100433.77
2023-12-10T03:00:12.722Z,100434.61
2023-12-10T03:01:15.376Z,100432.00
2023-12-10T03:02:19.903Z,100429.34
2023-12-10T03:03:22.706Z,100428.42
2023-12-10T03:04:25.440Z,100434.48
2023-12-10T03:05:28.332Z,100433.63
2023-12-10T03:06:31.105Z,100431.99
2023-12-10T03:07:33.609Z,100437.20
2023-12-10T03:08:36.122Z,100435.52
2023-12-10T03:09:38.747Z,100432.86
2023-12-10T03:10:41.465Z,100433.72
2023-12-10T03:11:43.965Z,100431.95
2023-12-10T03:12:46.642Z,100435.52
2023-12-10T03:13:49.222Z,100439.81
2023-12-10T03:14:51.830Z,100434.69
2023-12-10T03:15:54.540Z,100439.03
2023-12-10T03:16:57.280Z,100441.64
2023-12-10T03:17:59.975Z,100441.69
2023-12-10T03:19:02.749Z,100447.77
2023-12-10T03:20:06.431Z,100436.48
2023-12-10T03:21:09.083Z,100442.61
2023-12-10T03:22:11.743Z,100441.78
2023-12-10T03:23:14.211Z,100440.97
2023-12-10T03:24:16.906Z,100439.22
2023-12-10T03:25:20.147Z,100444.43
2023-12-10T03:26:23.860Z,100440.92
2023-12-10T03:27:26.582Z,100443.52
2023-12-10T03:28:29.222Z,100439.22
2023-12-10T03:29:31.745Z,100440.05
2023-12-10T03:30:34.449Z,100430.51
2023-12-10T03:31:37.432Z,100435.76
2023-12-10T03:32:40.147Z,100437.55
2023-12-10T03:33:43.067Z,100440.19
2023-12-10T03:34:45.774Z,100436.73
2023-12-10T03:35:49.481Z,100437.64
2023-12-10T03:36:52.369Z,100430.73
2023-12-10T03:37:55.069Z,100424.67
2023-12-10T03:38:57.640Z,100424.72
2023-12-10T03:40:00.146Z,100427.36
2023-12-10T03:41:02.692Z,100435.17
2023-12-10T03:42:05.237Z,100436.87
2023-12-10T03:43:07.798Z,100436.86
2023-12-10T03:44:10.329Z,100427.28
2023-12-10T03:45:12.854Z,100428.14
2023-12-10T03:46:17.130Z,100422.94
2023-12-10T03:47:19.569Z,100424.72
2023-12-10T03:48:22.202Z,100420.34
2023-12-10T03:49:25.024Z,100427.27
2023-12-10T03:50:27.709Z,100427.23
2023-12-10T03:51:32.497Z,100421.16
2023-12-10T03:52:34.651Z,100427.19
2023-12-10T03:53:37.253Z,100421.92
2023-12-10T03:54:39.874Z,100419.38
2023-12-10T03:55:42.456Z,100417.64
2023-12-10T03:56:45.179Z,100428.09
2023-12-10T03:57:47.762Z,100433.30
2023-12-10T03:58:50.407Z,100428.97
2023-12-10T03:59:52.933Z,100430.79
2023-12-10T04:00:55.618Z,100428.19
2023-12-10T04:01:58.310Z,100432.44
2023-12-10T04:03:00.915Z,100434.16
2023-12-10T04:04:04.049Z,100432.44
2023-12-10T04:05:07.354Z,100434.16
2023-12-10T04:06:10.313Z,100433.30
2023-12-10T04:07:12.994Z,100435.03
2023-12-10T04:08:15.763Z,100435.89
2023-12-10T04:09:18.226Z,100442.80
2023-12-10T04:10:20.824Z,100441.11
2023-12-10T04:11:26.484Z,100442.84
2023-12-10T04:12:31.513Z,100446.36
2023-12-10T04:13:34.425Z,100446.41
2023-12-10T04:14:36.997Z,100443.80
2023-12-10T04:15:39.674Z,100443.86
2023-12-10T04:16:42.440Z,100444.76
2023-12-10T04:17:45.011Z,100436.95
2023-12-10T04:18:47.650Z,100445.62
2023-12-10T04:19:50.424Z,100436.96
2023-12-10T04:20:53.221Z,100439.56
2023-12-10T04:21:55.845Z,100434.41
2023-12-10T04:22:59.686Z,100431.02
2023-12-10T04:24:02.770Z,100435.41
2023-12-10T04:25:06.085Z,100425.03
2023-12-10T04:26:09.397Z,100432.80
2023-12-10T04:27:12.012Z,100426.73
2023-12-10T04:28:14.665Z,100423.22
2023-12-10T04:29:17.228Z,100431.89
2023-12-10T04:30:20.011Z,100418.88
2023-12-10T04:31:22.635Z,100424.09
2023-12-10T04:32:25.093Z,100434.58
2023-12-10T04:33:27.788Z,100425.87
2023-12-10T04:34:30.641Z,100430.20
2023-12-10T04:35:33.246Z,100430.98
2023-12-10T04:36:35.930Z,100430.93
2023-12-10T04:37:38.605Z,100427.47
2023-12-10T04:38:41.255Z,100427.47
2023-12-10T04:39:44.017Z,100432.63
2023-12-10T04:40:46.906Z,100429.14
2023-12-10T04:41:49.470Z,100429.97
2023-12-10T04:42:52.061Z,100432.57
2023-12-10T04:43:54.573Z,100429.09
2023-12-10T04:44:57.069Z,100432.56
2023-12-10T04:45:59.634Z,100435.12
2023-12-10T04:47:02.216Z,100428.14
2023-12-10T04:48:05.683Z,100432.42
2023-12-10T04:49:08.541Z,100429.78
2023-12-10T04:50:11.305Z,100435.86
2023-12-10T04:51:13.910Z,100433.25
2023-12-10T04:52:16.493Z,100431.52
2023-12-10T04:53:19.756Z,100435.81
2023-12-10T04:54:22.451Z,100428.91
2023-12-10T04:55:25.223Z,100429.83
2023-12-10T04:56:28.271Z,100428.14
2023-12-10T04:57:30.926Z,100436.04
2023-12-10T04:58:33.514Z,100430.92
2023-12-10T04:59:36.046Z,100436.14
2023-12-10T05:00:38.932Z,100439.60
2023-12-10T05:01:41.750Z,100439.66
2023-12-10T05:02:44.416Z,100443.98
2023-12-10T05:03:47.057Z,100445.68
2023-12-10T05:04:49.589Z,100443.98
2023-12-10T05:05:52.111Z,100451.80
2023-12-10T05:06:54.952Z,100454.39
2023-12-10T05:07:57.537Z,100448.32
2023-12-10T05:09:00.118Z,100452.62
2023-12-10T05:10:02.854Z,100450.87
2023-12-10T05:11:06.225Z,100448.23
2023-12-10T05:12:09.139Z,100458.64
2023-12-10T05:13:11.705Z,100457.78
2023-12-10T05:14:14.277Z,100462.16
2023-12-10T05:15:16.898Z,100466.45
2023-12-10T05:16:19.617Z,100469.05
2023-12-10T05:17:22.319Z,100467.31
2023-12-10T05:18:24.931Z,100465.58
2023-12-10T05:19:27.663Z,100465.59
2023-12-10T05:20:30.906Z,100460.47
2023-12-10T05:21:33.649Z,100466.50
2023-12-10T05:22:36.311Z,100465.62
2023-12-10T05:23:38.921Z,100472.56
2023-12-10T05:24:41.529Z,100462.11
2023-12-10T05:25:44.154Z,100464.63
2023-12-10T05:26:47.027Z,100467.22
2023-12-10T05:27:49.812Z,100464.63
2023-12-10T05:28:52.565Z,100460.28
2023-12-10T05:29:55.139Z,100460.29
2023-12-10T05:30:57.855Z,100451.61
2023-12-10T05:32:00.475Z,100454.21
2023-12-10T05:33:03.159Z,100454.26
2023-12-10T05:34:06.035Z,100440.42
2023-12-10T05:35:09.297Z,100448.19
2023-12-10T05:36:12.597Z,100449.92
2023-12-10T05:37:15.120Z,100454.27
2023-12-10T05:38:17.611Z,100458.55
2023-12-10T05:39:20.194Z,100459.38
2023-12-10T05:40:23.055Z,100467.13
2023-12-10T05:41:25.633Z,100468.82
2023-12-10T05:42:28.766Z,100466.12
2023-12-10T05:43:31.639Z,100459.19
2023-12-10T05:44:34.242Z,100459.19
2023-12-10T05:45:36.877Z,100456.63
2023-12-10T05:46:39.617Z,100456.64
2023-12-10T05:47:42.283Z,100449.73
2023-12-10T05:48:45.064Z,100458.37
2023-12-10T05:49:47.740Z,100456.67
2023-12-10T05:50:50.585Z,100457.50
2023-12-10T05:51:53.218Z,100455.77
2023-12-10T05:52:55.907Z,100455.77
2023-12-10T05:53:58.435Z,100460.14
2023-12-10T05:55:00.846Z,100455.81
2023-12-10T05:56:04.286Z,100463.61
2023-12-10T05:57:06.907Z,100460.09
2023-12-10T05:58:09.706Z,100454.95
2023-12-10T05:59:12.535Z,100464.45
2023-12-10T06:00:16.014Z,100465.31
2023-12-10T06:01:18.703Z,100462.70
2023-12-10T06:02:22.552Z,100464.48
2023-12-10T06:03:25.625Z,100460.97
2023-12-10T06:04:28.335Z,100463.52
2023-12-10T06:05:31.041Z,100461.75
2023-12-10T06:06:33.712Z,100460.00
2023-12-10T06:07:36.455Z,100461.70
2023-12-10T06:08:39.858Z,100453.92
2023-12-10T06:09:42.464Z,100455.66
2023-12-10T06:10:45.231Z,100458.18
2023-12-10T06:11:47.714Z,100453.80
2023-12-10T06:12:50.329Z,100449.45
2023-12-10T06:13:53.090Z,100457.27
2023-12-10T06:14:56.692Z,100453.78
2023-12-10T06:16:00.610Z,100465.06
2023-12-10T06:17:03.660Z,100465.93
2023-12-10T06:18:06.389Z,100465.93
2023-12-10T06:19:09.116Z,100468.49
2023-12-10T06:20:12.367Z,100476.34
2023-12-10T06:21:15.053Z,100471.14
2023-12-10T06:22:17.777Z,100471.19
2023-12-10T06:23:20.217Z,100462.47
2023-12-10T06:24:22.780Z,100473.80
2023-12-10T06:25:25.319Z,100476.41
2023-12-10T06:26:27.963Z,100471.20
2023-12-10T06:27:30.568Z,100479.92
2023-12-10T06:28:33.016Z,100478.18
2023-12-10T06:29:35.845Z,100485.17
2023-12-10T06:30:38.479Z,100477.31
2023-12-10T06:31:41.024Z,100477.31
2023-12-10T06:32:43.635Z,100473.89
2023-12-10T06:33:46.434Z,100470.46
2023-12-10T06:34:49.275Z,100471.28
2023-12-10T06:35:51.762Z,100471.30
2023-12-10T06:36:54.529Z,100472.15
2023-12-10T06:37:57.145Z,100470.38
2023-12-10T06:38:59.716Z,100467.68
2023-12-10T06:40:02.423Z,100470.23
2023-12-10T06:41:05.663Z,100464.09
2023-12-10T06:42:08.334Z,100476.25
2023-12-10T06:43:11.107Z,100466.66
2023-12-10T06:44:13.835Z,100459.66
2023-12-10T06:45:16.419Z,100477.02
2023-12-10T06:46:19.210Z,100469.12
2023-12-10T06:47:21.682Z,100463.91
2023-12-10T06:48:24.433Z,100464.73
2023-12-10T06:49:27.311Z,100466.47
2023-12-10T06:50:30.435Z,100466.45
2023-12-10T06:51:32.889Z,100463.81
2023-12-10T06:52:35.472Z,100464.67
2023-12-10T06:53:38.210Z,100461.09
2023-12-10T06:54:40.822Z,100461.92
2023-12-10T06:55:43.410Z,100466.25
2023-12-10T06:56:45.973Z,100456.61
2023-12-10T06:57:48.472Z,100464.46
2023-12-10T06:58:50.912Z,100465.30
2023-12-10T06:59:53.698Z,100460.95
2023-12-10T07:00:56.411Z,100454.81
2023-12-10T07:01:59.054Z,100461.70
2023-12-10T07:03:01.653Z,100460.74
2023-12-10T07:04:06.108Z,100461.60
2023-12-10T07:05:09.042Z,100469.37
2023-12-10T07:06:11.882Z,100457.20
2023-12-10T07:07:14.438Z,100458.84
2023-12-10T07:08:17.014Z,100460.57
2023-12-10T07:09:19.836Z,100457.92
2023-12-10T07:10:22.669Z,100463.08
2023-12-10T07:11:25.189Z,100466.45
2023-12-10T07:12:27.993Z,100461.17
2023-12-10T07:13:30.730Z,100459.36
2023-12-10T07:14:33.241Z,100461.11
2023-12-10T07:15:35.787Z,100460.23
2023-12-10T07:16:38.597Z,100463.70
2023-12-10T07:17:41.357Z,100462.84
2023-12-10T07:18:44.094Z,100466.27
2023-12-10T07:19:46.891Z,100467.13
2023-12-10T07:20:49.588Z,100467.03
2023-12-10T07:21:52.148Z,100466.11
2023-12-10T07:22:54.663Z,100459.15
2023-12-10T07:23:57.275Z,100458.27
2023-12-10T07:24:59.935Z,100460.83
2023-12-10T07:26:02.715Z,100449.63
2023-12-10T07:27:05.482Z,100456.53
2023-12-10T07:28:08.048Z,100455.61
2023-12-10T07:29:10.569Z,100452.08
2023-12-10T07:30:14.715Z,100465.92
2023-12-10T07:31:18.161Z,100459.89
2023-12-10T07:32:20.781Z,100452.95
2023-12-10T07:33:23.658Z,100454.69
2023-12-10T07:34:26.357Z,100453.87
2023-12-10T07:35:28.995Z,100458.22
2023-12-10T07:36:32.668Z,100464.36
2023-12-10T07:37:35.755Z,100460.87
2023-12-10T07:38:38.931Z,100452.20
2023-12-10T07:39:41.530Z,100458.28
2023-12-10T07:40:44.272Z,100459.14
2023-12-10T07:41:46.802Z,100460.81
2023-12-10T07:42:49.442Z,100459.08
2023-12-10T07:43:51.981Z,100466.03
2023-12-10T07:44:54.504Z,100470.33
2023-12-10T07:45:57.073Z,100477.28
2023-12-10T07:47:00.087Z,100472.88
2023-12-10T07:48:03.623Z,100470.27
2023-12-10T07:49:06.456Z,100474.61
2023-12-10T07:50:09.883Z,100472.81
2023-12-10T07:51:12.609Z,100476.30
2023-12-10T07:52:15.560Z,100482.33
2023-12-10T07:53:18.053Z,100484.00
2023-12-10T07:54:20.597Z,100484.77
2023-12-10T07:55:23.186Z,100489.92
2023-12-10T07:56:25.853Z,100482.90
2023-12-10T07:57:28.366Z,100487.30
2023-12-10T07:58:30.826Z,100490.77
2023-12-10T07:59:33.463Z,100490.79
2023-12-10T08:00:36.379Z,100491.60
2023-12-10T08:01:39.274Z,100494.15
2023-12-10T08:02:41.866Z,100487.19
2023-12-10T08:03:44.624Z,100497.50
2023-12-10T08:04:47.308Z,100500.05
2023-12-10T08:05:49.732Z,100497.38
2023-12-10T08:06:52.484Z,100490.36
2023-12-10T08:07:55.020Z,100491.16
2023-12-10T08:08:57.679Z,100491.05
2023-12-10T08:10:00.402Z,100494.46
2023-12-10T08:11:02.951Z,100491.84
2023-12-10T08:12:06.133Z,100490.92
2023-12-10T08:13:08.738Z,100491.73
2023-12-10T08:14:11.270Z,100496.84
2023-12-10T08:15:13.921Z,100496.01
2023-12-10T08:16:16.632Z,100488.99
2023-12-10T08:17:19.123Z,100496.01
2023-12-10T08:18:21.836Z,100494.23
2023-12-10T08:19:24.771Z,100481.34
2023-12-10T08:20:27.758Z,100476.94
2023-12-10T08:21:30.547Z,100485.70
2023-12-10T08:22:33.160Z,100483.91
2023-12-10T08:23:35.667Z,100477.87
2023-12-10T08:24:38.219Z,100472.66
2023-12-10T08:25:40.761Z,100481.36
2023-12-10T08:26:43.364Z,100476.89
2023-12-10T08:27:45.952Z,100470.79
2023-12-10T08:28:48.969Z,100475.96
2023-12-10T08:29:51.486Z,100476.88
2023-12-10T08:30:54.408Z,100474.22
2023-12-10T08:31:57.238Z,100477.73
2023-12-10T08:32:59.789Z,100475.94
2023-12-10T08:34:02.400Z,100470.66
2023-12-10T08:35:05.848Z,100476.64
2023-12-10T08:36:09.742Z,100479.42
2023-12-10T08:37:12.414Z,100482.86
2023-12-10T08:38:14.990Z,100476.80
2023-12-10T08:39:17.577Z,100478.50
2023-12-10T08:40:20.374Z,100477.57
2023-12-10T08:41:23.060Z,100477.55
2023-12-10T08:42:25.564Z,100473.12
2023-12-10T08:43:28.137Z,100470.47
2023-12-10T08:44:31.021Z,100471.40
2023-12-10T08:45:35.040Z,100470.47
2023-12-10T08:46:38.081Z,100470.47
2023-12-10T08:47:40.823Z,100470.47
2023-12-10T08:48:43.736Z,100470.52
2023-12-10T08:49:46.546Z,100473.03
2023-12-10T08:50:51.015Z,100468.67
2023-12-10T08:51:53.651Z,100468.00
2023-12-10T08:52:56.248Z,100461.98
2023-12-10T08:53:58.734Z,100467.19
2023-12-10T08:55:01.646Z,100460.98
2023-12-10T08:56:05.258Z,100463.52
2023-12-10T08:57:07.857Z,100460.84
2023-12-10T08:58:10.417Z,100463.52
2023-12-10T08:59:12.911Z,100463.59
2023-12-10T09:00:17.697Z,100463.57
2023-12-10T09:01:20.456Z,100462.83
2023-12-10T09:02:23.099Z,100459.35
2023-12-10T09:03:25.656Z,100462.89
2023-12-10T09:04:28.280Z,100461.16
2023-12-10T09:05:30.887Z,100455.88
2023-12-10T09:06:34.633Z,100451.45
2023-12-10T09:07:37.306Z,100449.66
2023-12-10T09:08:39.942Z,100450.47
2023-12-10T09:09:42.986Z,100446.85
2023-12-10T09:10:45.682Z,100452.87
2023-12-10T09:11:48.116Z,100460.63
2023-12-10T09:12:50.713Z,100457.95
2023-12-10T09:13:53.527Z,100459.57
2023-12-10T09:14:56.620Z,100461.23
2023-12-10T09:15:59.671Z,100455.06
2023-12-10T09:17:02.469Z,100456.75
2023-12-10T09:18:05.171Z,100455.02
2023-12-10T09:19:07.985Z,100450.73
2023-12-10T09:20:12.831Z,100451.52
2023-12-10T09:21:15.490Z,100444.55
2023-12-10T09:22:18.049Z,100450.71
2023-12-10T09:23:20.931Z,100453.17
2023-12-10T09:24:23.719Z,100449.64
2023-12-10T09:25:26.388Z,100448.84
2023-12-10T09:26:29.041Z,100442.80
2023-12-10T09:27:31.636Z,100441.08
2023-12-10T09:28:34.174Z,100437.45
2023-12-10T09:29:36.743Z,100436.52
2023-12-10T09:30:39.919Z,100444.22
2023-12-10T09:31:42.623Z,100443.20
2023-12-10T09:32:45.198Z,100437.91
2023-12-10T09:33:49.131Z,100436.08
2023-12-10T09:34:52.015Z,100434.20
2023-12-10T09:35:55.014Z,100428.01
2023-12-10T09:36:58.179Z,100429.63
2023-12-10T09:38:01.578Z,100427.80
2023-12-10T09:39:04.140Z,100432.97
2023-12-10T09:40:07.799Z,100429.47
2023-12-10T09:41:10.508Z,100428.66
2023-12-10T09:42:13.010Z,100428.77
2023-12-10T09:43:15.571Z,100421.77
2023-12-10T09:44:18.115Z,100427.72
2023-12-10T09:45:20.669Z,100418.94
2023-12-10T09:46:24.840Z,100422.44
2023-12-10T09:47:29.228Z,100418.20
2023-12-10T09:48:32.978Z,100419.09
2023-12-10T09:49:37.700Z,100421.69
2023-12-10T09:50:40.776Z,100418.20
2023-12-10T09:51:43.395Z,100419.07
2023-12-10T09:52:46.021Z,100415.62
2023-12-10T09:53:50.529Z,100414.00
2023-12-10T09:54:53.237Z,100411.47
2023-12-10T09:55:55.823Z,100407.91
2023-12-10T09:56:58.751Z,100410.47
2023-12-10T09:58:01.355Z,100412.33
2023-12-10T09:59:03.985Z,100408.88
2023-12-10T10:00:07.980Z,100404.59
2023-12-10T10:01:10.903Z,100399.45
2023-12-10T10:02:13.625Z,100403.78
2023-12-10T10:03:16.219Z,100402.90
2023-12-10T10:04:18.823Z,100401.96
2023-12-10T10:05:22.147Z,100396.75
2023-12-10T10:06:27.162Z,100400.31
2023-12-10T10:07:30.508Z,100396.84
2023-12-10T10:08:33.141Z,100395.16
2023-12-10T10:09:38.221Z,100399.45
2023-12-10T10:10:42.079Z,100399.37
2023-12-10T10:11:49.098Z,100397.54
2023-12-10T10:12:56.373Z,100397.41
2023-12-10T10:13:59.085Z,100390.32
2023-12-10T10:15:01.821Z,100390.32
2023-12-10T10:16:11.476Z,100389.41
2023-12-10T10:17:14.104Z,100389.32
2023-12-10T10:18:16.741Z,100394.39
2023-12-10T10:19:19.631Z,100391.69
2023-12-10T10:21:33.322Z,100392.91
2023-12-10T10:22:36.395Z,100396.86
2023-12-10T10:23:39.071Z,100403.00
2023-12-10T10:24:41.856Z,100398.58
2023-12-10T10:25:44.315Z,100400.25
2023-12-10T10:26:47.344Z,100398.53
2023-12-10T10:27:50.033Z,100399.33
2023-12-10T10:28:53.151Z,100400.09
2023-12-10T10:29:55.834Z,100407.01
2023-12-10T10:30:59.021Z,100407.01
2023-12-10T10:32:01.766Z,100403.50
2023-12-10T10:33:04.339Z,100401.78
2023-12-10T10:34:07.267Z,100405.23
2023-12-10T10:35:09.964Z,100401.70
2023-12-10T10:36:16.018Z,100402.61
2023-12-10T10:37:19.024Z,100395.60
2023-12-10T10:38:21.664Z,100407.09
2023-12-10T10:39:24.618Z,100405.39
2023-12-10T10:40:27.518Z,100407.17
2023-12-10T10:41:30.958Z,100397.55
2023-12-10T10:42:35.542Z,100398.22
2023-12-10T10:43:37.801Z,100395.60
2023-12-10T10:44:40.867Z,100393.83
2023-12-10T10:45:43.499Z,100390.43
2023-12-10T10:46:46.695Z,100385.14
2023-12-10T10:47:49.528Z,100391.23
2023-12-10T10:48:52.382Z,100388.68
2023-12-10T10:50:20.017Z,100380.06
2023-12-10T10:51:02.880Z,100383.84
2023-12-10T10:52:09.176Z,100385.73
2023-12-10T10:53:13.058Z,100383.29
2023-12-10T10:54:16.080Z,100380.84
2023-12-10T10:55:18.817Z,100384.26
2023-12-10T10:56:22.611Z,100382.56
2023-12-10T10:58:40.144Z,100380.45
2023-12-10T10:59:42.703Z,100379.20
2023-12-10T11:00:45.801Z,100379.20
2023-12-10T11:01:48.541Z,100384.42
2023-12-10T11:02:54.924Z,100384.34
2023-12-10T11:03:58.244Z,100382.59
2023-12-10T11:05:00.861Z,100385.17
2023-12-10T11:06:06.706Z,100381.64
2023-12-10T11:07:09.492Z,100382.56
2023-12-10T11:08:12.363Z,100376.58
2023-12-10T11:09:17.177Z,100372.19
2023-12-10T11:10:21.173Z,100373.94
2023-12-10T11:11:25.939Z,100371.27
2023-12-10T11:12:44.392Z,100371.19
2023-12-10T11:13:48.030Z,100368.55
2023-12-10T11:14:52.949Z,100374.64
2023-12-10T11:15:58.484Z,100376.34
2023-12-10T11:17:05.065Z,100380.62
2023-12-10T11:18:10.860Z,100376.31
2023-12-10T11:19:13.964Z,100378.09
2023-12-10T11:20:35.069Z,100381.64
2023-12-10T11:21:37.756Z,100386.92
2023-12-10T11:22:40.472Z,100383.45
2023-12-10T11:23:43.078Z,100380.78
2023-12-10T11:24:45.680Z,100378.17
2023-12-10T11:25:48.252Z,100375.61
2023-12-10T11:26:51.202Z,100381.73
2023-12-10T11:27:53.781Z,100382.56
2023-12-10T11:28:56.299Z,100380.67
2023-12-10T11:29:58.886Z,100381.48
2023-12-10T11:31:01.797Z,100384.88
2023-12-10T11:32:05.038Z,100376.25
2023-12-10T11:33:08.946Z,100372.03
2023-12-10T11:34:12.039Z,100377.34
2023-12-10T11:35:15.397Z,100373.86
2023-12-10T11:36:35.705Z,100370.47
2023-12-10T11:37:23.466Z,100377.36
2023-12-10T11:38:26.075Z,100386.01
2023-12-10T11:39:28.654Z,100389.45
2023-12-10T11:40:32.243Z,100389.54
2023-12-10T11:41:34.761Z,100390.48
2023-12-10T11:42:37.736Z,100397.41
2023-12-10T11:43:40.339Z,100398.34
2023-12-10T11:44:44.345Z,100401.02
2023-12-10T11:45:47.643Z,100398.50
2023-12-10T11:46:52.741Z,100394.20
2023-12-10T11:47:55.987Z,100396.81
2023-12-10T11:48:58.678Z,100397.75
2023-12-10T11:50:03.644Z,100395.89
2023-12-10T11:51:06.319Z,100393.26
2023-12-10T11:52:09.484Z,100397.62
2023-12-10T11:53:12.180Z,100398.41
2023-12-10T11:54:16.555Z,100391.42
2023-12-10T11:55:19.551Z,100387.88
2023-12-10T11:56:24.983Z,100386.88
2023-12-10T11:57:27.699Z,100391.29
2023-12-10T11:58:32.607Z,100385.92
2023-12-10T11:59:35.160Z,100383.23
2023-12-10T12:00:38.885Z,100385.68
2023-12-10T12:01:45.870Z,100383.95
2023-12-10T12:02:48.580Z,100375.14